CheckWX is a tool to help pilots better visualize weather data.  It is not intended as a substitute for an official pre-flight weather briefing.

16:09:34 UTC

KSGT METAR
Stuttgart Municipal Carl Humphrey Field Airport
Stuttgart, Arkansas, USA
Current

14 mins ago

KSGT 171556Z AUTO 09005KT 10SM CLR 14/07 A3014 RMK AO2 SLP209 T01390072
Observed
Oct-17 @ 15:56 UTC
Wind
  • 090° at 5 KTS
Visibility
10 SM
Flight Rules
VFR
Cloud Levels
  • Clear skies
Temperature
14°C / 57°F
Dewpoint
C / 45°F
Humidity
63%
Altimeter
30.14" Hg
Pressure
1020.62 hPa
Previous

1 hour ago

KSGT 171456Z AUTO 10006KT 10SM CLR 12/07 A3014 RMK AO2 SLP209 T01220072 53012
Observed
Oct-17 @ 14:56 UTC
Wind
  • 100° at 6 KTS
Visibility
10 SM
Flight Rules
VFR
Cloud Levels
  • Clear skies
Temperature
12°C / 54°F
Dewpoint
C / 45°F
Humidity
72%
Altimeter
30.14" Hg
Pressure
1020.62 hPa
Previous

2 hours ago

KSGT 171356Z AUTO 06006KT 10SM CLR 09/07 A3013 RMK AO2 SLP203 T00940072
Observed
Oct-17 @ 13:56 UTC
Wind
  • 060° at 6 KTS
Visibility
10 SM
Flight Rules
VFR
Cloud Levels
  • Clear skies
Temperature
C / 48°F
Dewpoint
C / 45°F
Humidity
87%
Altimeter
30.13" Hg
Pressure
1020.32 hPa